Time;durP1;ratioP1;P1;durP2;ratioP2;P2;SDS_P1;SDS_P2;PMS_P1;PMS_P2;Temp;Humidity;BMP_temperature;BMP_pressure;BME280_temperature;BME280_humidity;BME280_pressure;Samples;Min_cycle;Max_cycle;Signal;HPM_P1;HPM_P2
2024/02/22 00:02:32;;;;;;;16.00;3.60;;;;;;;;;;5016059;28;20041;-80
2024/02/22 00:05:00;;;;;;;14.15;3.30;;;;;;;;;;5029593;28;20029;-79
2024/02/22 00:07:27;;;;;;;12.82;3.42;;;;;;;;;;5026668;28;20125;-79
2024/02/22 00:09:54;;;;;;;13.25;3.60;;;;;;;;;;5012511;28;20036;-79
2024/02/22 00:12:21;;;;;;;12.90;3.70;;;;;;;;;;5026903;28;20116;-80
2024/02/22 00:14:47;;;;;;;13.93;3.83;;;;;;;;;;5010775;28;20026;-80
2024/02/22 00:17:15;;;;;;;15.80;3.92;;;;;;;;;;5027300;28;20154;-80
2024/02/22 00:19:42;;;;;;;14.40;4.40;;;;;;;;;;5016956;28;20040;-80
2024/02/22 00:22:10;;;;;;;15.98;4.85;;;;;;;;;;5019825;28;20119;-81
2024/02/22 00:24:38;;;;;;;14.90;3.65;;;;;;;;;;5022754;28;20725;-80
2024/02/22 00:27:05;;;;;;;14.73;3.70;;;;;;;;;;5013380;28;20028;-80
2024/02/22 00:29:34;;;;;;;15.88;4.00;;;;;;;;;;5029799;28;20021;-80
2024/02/22 00:32:04;;;;;;;13.90;3.70;;;;;;;;;;5032060;28;20060;-80
2024/02/22 00:34:32;;;;;;;14.50;3.90;;;;;;;;;;5016939;28;20032;-80
2024/02/22 00:36:59;;;;;;;13.02;4.13;;;;;;;;;;5030755;28;21942;-80
2024/02/22 00:39:27;;;;;;;16.23;5.18;;;;;;;;;;5024385;28;20022;-80
2024/02/22 00:41:53;;;;;;;12.27;3.67;;;;;;;;;;5026450;28;20033;-79
2024/02/22 00:44:19;;;;;;;16.50;3.75;;;;;;;;;;5033592;28;20024;-79
2024/02/22 00:46:50;;;;;;;14.93;3.92;;;;;;;;;;5032032;28;20048;-79
2024/02/22 00:49:21;;;;;;;14.23;3.78;;;;;;;;;;5046195;28;20041;-79
2024/02/22 00:51:48;;;;;;;12.70;5.00;;;;;;;;;;5046577;28;20614;-80
2024/02/22 00:54:17;;;;;;;14.15;5.68;;;;;;;;;;5037435;28;20033;-80
2024/02/22 00:56:44;;;;;;;13.82;3.95;;;;;;;;;;5021854;28;20279;-80
2024/02/22 00:59:11;;;;;;;13.45;3.60;;;;;;;;;;5035073;28;20056;-80
2024/02/22 01:01:37;;;;;;;15.13;3.55;;;;;;;;;;5022578;28;20070;-80
2024/02/22 01:04:03;;;;;;;17.52;4.10;;;;;;;;;;5017566;28;20029;-79
2024/02/22 01:06:30;;;;;;;15.63;3.25;;;;;;;;;;5034501;28;20025;-79
2024/02/22 01:08:58;;;;;;;15.77;3.50;;;;;;;;;;5020551;28;20037;-79
2024/02/22 01:11:24;;;;;;;15.80;3.70;;;;;;;;;;5019056;28;20041;-79
2024/02/22 01:13:50;;;;;;;13.75;3.47;;;;;;;;;;5020176;28;20821;-80
2024/02/22 01:16:19;;;;;;;13.07;3.13;;;;;;;;;;5019798;28;20128;-80
2024/02/22 01:18:45;;;;;;;14.43;3.20;;;;;;;;;;5035009;28;20703;-80
2024/02/22 01:21:13;;;;;;;14.18;3.85;;;;;;;;;;5016699;28;20044;-80
2024/02/22 01:23:41;;;;;;;12.90;3.35;;;;;;;;;;5020496;28;20093;-79
2024/02/22 01:26:07;;;;;;;15.10;3.20;;;;;;;;;;5038733;28;20032;-80
2024/02/22 01:28:33;;;;;;;14.50;3.17;;;;;;;;;;5032974;28;20025;-80
2024/02/22 01:31:00;;;;;;;15.00;3.22;;;;;;;;;;5019125;28;20028;-80
2024/02/22 01:33:29;;;;;;;14.85;3.28;;;;;;;;;;5014593;28;20061;-80
2024/02/22 01:35:55;;;;;;;16.48;4.32;;;;;;;;;;5017281;28;20092;-80
2024/02/22 01:38:23;;;;;;;14.48;3.40;;;;;;;;;;5012443;28;20029;-80
2024/02/22 01:40:49;;;;;;;14.30;2.92;;;;;;;;;;5016583;28;20032;-80
2024/02/22 01:43:15;;;;;;;13.93;3.47;;;;;;;;;;5024378;28;20056;-80
2024/02/22 01:45:42;;;;;;;12.13;3.30;;;;;;;;;;5006126;28;20083;-80
2024/02/22 01:48:10;;;;;;;12.95;3.35;;;;;;;;;;5007390;28;20049;-80
2024/02/22 01:50:37;;;;;;;11.35;3.30;;;;;;;;;;5011541;28;20032;-79
2024/02/22 01:53:07;;;;;;;10.38;2.65;;;;;;;;;;5022355;28;20030;-79
2024/02/22 01:55:33;;;;;;;15.13;3.38;;;;;;;;;;5009422;28;20126;-79
2024/02/22 01:58:01;;;;;;;12.27;3.58;;;;;;;;;;5004513;28;20035;-79
2024/02/22 02:00:28;;;;;;;11.30;3.10;;;;;;;;;;5014687;28;20037;-79
2024/02/22 02:02:55;;;;;;;13.02;2.92;;;;;;;;;;5008329;28;20037;-79
2024/02/22 02:05:21;;;;;;;14.85;3.17;;;;;;;;;;5010847;28;20022;-79
2024/02/22 02:07:47;;;;;;;13.15;3.97;;;;;;;;;;5007167;28;20957;-80
2024/02/22 02:10:13;;;;;;;13.77;3.25;;;;;;;;;;5002464;28;20034;-80
2024/02/22 02:12:40;;;;;;;14.98;3.60;;;;;;;;;;5000310;28;20037;-80
2024/02/22 02:15:06;;;;;;;;;;;;;;;;;;5008191;28;20643;-79
2024/02/22 02:17:32;;;;;;;14.50;3.80;;;;;;;;;;5004920;28;19913;-79
2024/02/22 02:20:03;;;;;;;14.05;3.42;;;;;;;;;;5011415;28;21381;-79
2024/02/22 02:22:39;;;;;;;14.80;3.92;;;;;;;;;;5012561;28;20100;-79
2024/02/22 02:25:08;;;;;;;14.18;3.92;;;;;;;;;;5008923;28;20058;-82
2024/02/22 02:27:36;;;;;;;12.07;3.65;;;;;;;;;;5012865;28;20050;-80
2024/02/22 02:30:04;;;;;;;14.55;3.60;;;;;;;;;;5014057;28;20041;-80
2024/02/22 02:32:30;;;;;;;14.23;3.25;;;;;;;;;;5014274;28;20030;-80
2024/02/22 02:34:56;;;;;;;14.52;3.65;;;;;;;;;;5000527;28;20037;-79
2024/02/22 02:37:22;;;;;;;13.50;4.40;;;;;;;;;;5010461;28;20443;-80
2024/02/22 02:39:50;;;;;;;14.60;5.43;;;;;;;;;;5007340;28;20049;-79
2024/02/22 02:42:16;;;;;;;18.13;6.32;;;;;;;;;;5006166;28;20053;-79
2024/02/22 02:44:43;;;;;;;;;;;;;;;;;;5010050;28;20029;-79
2024/02/22 02:47:12;;;;;;;19.25;7.25;;;;;;;;;;5028245;28;20228;-79
2024/02/22 02:49:41;;;;;;;16.88;5.07;;;;;;;;;;5028584;28;20017;-80
2024/02/22 02:52:09;;;;;;;13.48;4.05;;;;;;;;;;5031073;28;20029;-79
2024/02/22 02:54:36;;;;;;;13.57;4.32;;;;;;;;;;5008179;28;20040;-80
2024/02/22 02:57:03;;;;;;;14.27;3.75;;;;;;;;;;5013440;28;20032;-80
2024/02/22 02:59:29;;;;;;;15.07;3.88;;;;;;;;;;5024316;28;20026;-80
2024/02/22 03:01:55;;;;;;;;;;;;;;;;;;5022309;28;20055;-79
2024/02/22 03:04:21;;;;;;;15.07;3.83;;;;;;;;;;5008424;28;19942;-79
2024/02/22 03:06:48;;;;;;;13.98;3.72;;;;;;;;;;5032685;28;20029;-81
2024/02/22 03:09:15;;;;;;;15.15;4.20;;;;;;;;;;5032846;28;20049;-79
2024/02/22 03:11:42;;;;;;;;;;;;;;;;;;5027678;28;20113;-81
2024/02/22 03:14:12;;;;;;;14.35;3.70;;;;;;;;;;5031466;28;19913;-81
2024/02/22 03:16:38;;;;;;;;;;;;;;;;;;5025813;28;20037;-78
2024/02/22 03:19:04;;;;;;;16.50;4.07;;;;;;;;;;5027988;28;19909;-80
2024/02/22 03:21:31;;;;;;;13.45;3.25;;;;;;;;;;5006986;28;20041;-79
2024/02/22 03:23:59;;;;;;;15.45;3.90;;;;;;;;;;5004673;28;20036;-80
2024/02/22 03:26:26;;;;;;;13.35;3.67;;;;;;;;;;5016037;28;20033;-80
2024/02/22 03:28:55;;;;;;;15.93;3.60;;;;;;;;;;5020521;28;20056;-79
2024/02/22 03:31:22;;;;;;;14.30;3.67;;;;;;;;;;5011151;28;20029;-80
2024/02/22 03:33:51;;;;;;;14.85;3.50;;;;;;;;;;5012918;28;20064;-80
2024/02/22 03:36:17;;;;;;;13.95;4.22;;;;;;;;;;5025792;28;20025;-79
2024/02/22 03:38:43;;;;;;;15.15;3.95;;;;;;;;;;5032093;28;20099;-80
2024/02/22 03:41:10;;;;;;;14.65;4.00;;;;;;;;;;5038182;28;20071;-79
2024/02/22 03:43:39;;;;;;;16.15;3.78;;;;;;;;;;5035768;28;20021;-80
2024/02/22 03:46:05;;;;;;;12.15;3.28;;;;;;;;;;5034483;28;20050;-79
2024/02/22 03:48:31;;;;;;;13.23;3.30;;;;;;;;;;5039054;28;20599;-79
2024/02/22 03:50:58;;;;;;;16.70;4.20;;;;;;;;;;5030182;28;20116;-79
2024/02/22 03:53:24;;;;;;;;;;;;;;;;;;5017121;28;20038;-80
2024/02/22 03:55:52;;;;;;;13.02;3.40;;;;;;;;;;5017539;28;19919;-79
2024/02/22 03:58:20;;;;;;;14.95;3.75;;;;;;;;;;5033750;28;20028;-79
2024/02/22 04:00:47;;;;;;;16.65;3.50;;;;;;;;;;5030456;28;20059;-79
2024/02/22 04:03:13;;;;;;;18.92;4.00;;;;;;;;;;5035606;28;20127;-80
2024/02/22 04:05:42;;;;;;;17.25;3.90;;;;;;;;;;5030588;28;20061;-79
2024/02/22 04:08:09;;;;;;;17.73;3.92;;;;;;;;;;5013621;28;20033;-79
2024/02/22 04:10:35;;;;;;;15.27;3.65;;;;;;;;;;5015329;28;20030;-79
2024/02/22 04:13:02;;;;;;;18.17;3.75;;;;;;;;;;5012008;28;20052;-79
2024/02/22 04:15:28;;;;;;;13.50;3.33;;;;;;;;;;5031679;28;20115;-80
2024/02/22 04:17:55;;;;;;;13.77;3.55;;;;;;;;;;5025919;28;20029;-80
2024/02/22 04:20:21;;;;;;;15.07;3.70;;;;;;;;;;5012894;28;20767;-79
2024/02/22 04:22:49;;;;;;;15.60;3.83;;;;;;;;;;5008085;28;20064;-79
2024/02/22 04:25:15;;;;;;;12.40;3.28;;;;;;;;;;5032463;28;20025;-79
2024/02/22 04:27:41;;;;;;;;;;;;;;;;;;4999347;28;20037;-80
2024/02/22 04:30:09;;;;;;;14.13;3.53;;;;;;;;;;5031444;28;19919;-80
2024/02/22 04:32:35;;;;;;;12.35;3.10;;;;;;;;;;5030194;28;20038;-80
2024/02/22 04:35:03;;;;;;;16.05;3.30;;;;;;;;;;5012477;28;20115;-81
2024/02/22 04:37:29;;;;;;;12.93;3.53;;;;;;;;;;5028125;28;20052;-81
2024/02/22 04:39:57;;;;;;;17.10;3.75;;;;;;;;;;5015892;28;20041;-79
2024/02/22 04:42:23;;;;;;;16.40;3.78;;;;;;;;;;5029703;28;20063;-80
2024/02/22 04:44:49;;;;;;;16.73;4.43;;;;;;;;;;5019322;28;20465;-80
2024/02/22 04:47:17;;;;;;;17.80;4.10;;;;;;;;;;5016295;28;20029;-80
2024/02/22 04:49:44;;;;;;;13.38;3.80;;;;;;;;;;5027845;28;20151;-80
2024/02/22 04:52:10;;;;;;;14.13;3.60;;;;;;;;;;5028704;28;20024;-80
2024/02/22 04:54:38;;;;;;;13.15;3.78;;;;;;;;;;5029515;28;20067;-80
2024/02/22 04:57:08;;;;;;;13.88;3.90;;;;;;;;;;5028400;28;20047;-80
2024/02/22 04:59:36;;;;;;;15.93;4.22;;;;;;;;;;5027107;28;20043;-80
2024/02/22 05:02:02;;;;;;;15.63;3.85;;;;;;;;;;5014367;28;20033;-80
2024/02/22 05:04:30;;;;;;;15.30;3.85;;;;;;;;;;5035585;28;20052;-79
2024/02/22 05:06:56;;;;;;;14.45;4.05;;;;;;;;;;5035012;28;20084;-79
2024/02/22 05:09:24;;;;;;;17.70;4.38;;;;;;;;;;5021713;28;20033;-79
2024/02/22 05:11:52;;;;;;;13.40;4.00;;;;;;;;;;5021958;28;20055;-80
2024/02/22 05:14:19;;;;;;;14.25;4.40;;;;;;;;;;5031874;28;20032;-80
2024/02/22 05:16:48;;;;;;;15.35;4.90;;;;;;;;;;5027818;28;20037;-80
2024/02/22 05:19:14;;;;;;;17.85;6.82;;;;;;;;;;5015876;28;20090;-79
2024/02/22 05:21:41;;;;;;;;;;;;;;;;;;5020644;28;20025;-79
2024/02/22 05:24:12;;;;;;;22.75;11.50;;;;;;;;;;5024461;28;19948;-79
2024/02/22 05:26:39;;;;;;;22.50;11.77;;;;;;;;;;5024426;28;20035;-79
2024/02/22 05:29:08;;;;;;;26.08;13.27;;;;;;;;;;5024812;28;20029;-79
2024/02/22 05:31:34;;;;;;;28.20;13.13;;;;;;;;;;5007297;28;20041;-79
2024/02/22 05:34:01;;;;;;;23.95;11.20;;;;;;;;;;5020720;28;20029;-81
2024/02/22 05:36:28;;;;;;;23.23;11.05;;;;;;;;;;5008504;28;20032;-78
2024/02/22 05:38:54;;;;;;;26.35;10.85;;;;;;;;;;5006740;28;20037;-81
2024/02/22 05:41:22;;;;;;;21.85;10.13;;;;;;;;;;5010684;28;20025;-78
2024/02/22 05:43:48;;;;;;;27.13;9.30;;;;;;;;;;5005428;28;20037;-78
2024/02/22 05:46:14;;;;;;;20.42;9.18;;;;;;;;;;5021672;28;20421;-79
2024/02/22 05:48:40;;;;;;;21.75;9.18;;;;;;;;;;5008874;28;20028;-79
2024/02/22 05:51:09;;;;;;;19.98;9.60;;;;;;;;;;5011692;28;20041;-80
2024/02/22 05:53:35;;;;;;;20.27;8.35;;;;;;;;;;5012513;28;20132;-80
2024/02/22 05:56:03;;;;;;;20.80;8.82;;;;;;;;;;5028246;28;20037;-79
2024/02/22 05:58:29;;;;;;;20.13;9.00;;;;;;;;;;5014133;28;20573;-79
2024/02/22 06:00:55;;;;;;;20.48;8.93;;;;;;;;;;5001939;28;20040;-79
2024/02/22 06:03:22;;;;;;;21.23;9.23;;;;;;;;;;5022364;28;20045;-78
2024/02/22 06:05:50;;;;;;;21.75;9.35;;;;;;;;;;5026467;28;20033;-79
2024/02/22 06:08:18;;;;;;;22.83;8.20;;;;;;;;;;5026691;28;20116;-78
2024/02/22 06:10:44;;;;;;;24.00;8.35;;;;;;;;;;5010848;28;20433;-78
2024/02/22 06:13:12;;;;;;;20.75;9.40;;;;;;;;;;5021415;28;20033;-78
2024/02/22 06:15:40;;;;;;;18.35;8.85;;;;;;;;;;5020113;28;20651;-81
2024/02/22 06:18:08;;;;;;;24.30;9.52;;;;;;;;;;5005073;28;20132;-79
2024/02/22 06:20:37;;;;;;;21.00;9.15;;;;;;;;;;5007903;28;20036;-80
2024/02/22 06:23:04;;;;;;;22.35;9.45;;;;;;;;;;5003126;28;20025;-80
2024/02/22 06:25:31;;;;;;;21.58;8.00;;;;;;;;;;5009773;28;20043;-80
2024/02/22 06:27:59;;;;;;;17.42;7.13;;;;;;;;;;5019718;28;20025;-80
2024/02/22 06:30:25;;;;;;;20.42;7.65;;;;;;;;;;5026306;28;20028;-80
2024/02/22 06:32:52;;;;;;;18.48;8.30;;;;;;;;;;5012194;28;20031;-80
2024/02/22 06:35:22;;;;;;;19.05;7.50;;;;;;;;;;5027213;28;20425;-81
2024/02/22 06:37:51;;;;;;;18.48;7.63;;;;;;;;;;5023473;28;20130;-80
2024/02/22 06:40:18;;;;;;;18.15;6.97;;;;;;;;;;5027934;28;20086;-79
2024/02/22 06:42:45;;;;;;;20.92;7.10;;;;;;;;;;5009891;28;21128;-80
2024/02/22 06:45:12;;;;;;;19.30;6.03;;;;;;;;;;5020794;28;20037;-80
2024/02/22 06:47:40;;;;;;;22.30;6.82;;;;;;;;;;5015775;28;20037;-80
2024/02/22 06:50:09;;;;;;;18.17;6.30;;;;;;;;;;5031517;28;20029;-80
2024/02/22 06:52:35;;;;;;;18.40;5.57;;;;;;;;;;5009468;28;20462;-79
2024/02/22 06:55:03;;;;;;;18.85;5.90;;;;;;;;;;5030275;28;20032;-79
2024/02/22 06:57:29;;;;;;;20.27;5.60;;;;;;;;;;5014346;28;20065;-79
2024/02/22 06:59:56;;;;;;;17.70;5.32;;;;;;;;;;5013901;28;20136;-79
2024/02/22 07:02:24;;;;;;;18.25;5.20;;;;;;;;;;5029757;28;20041;-78
2024/02/22 07:04:51;;;;;;;16.02;4.57;;;;;;;;;;5018325;28;20029;-78
2024/02/22 07:07:18;;;;;;;18.10;4.75;;;;;;;;;;5026643;28;20048;-79
2024/02/22 07:09:45;;;;;;;13.43;4.60;;;;;;;;;;5009529;28;20032;-78
2024/02/22 07:12:15;;;;;;;15.20;4.25;;;;;;;;;;5025408;28;20036;-80
2024/02/22 07:14:42;;;;;;;15.00;4.65;;;;;;;;;;5032972;28;20083;-78
2024/02/22 07:17:09;;;;;;;15.93;4.88;;;;;;;;;;5005964;28;20039;-81
2024/02/22 07:19:35;;;;;;;18.17;4.65;;;;;;;;;;5025882;28;20104;-80
2024/02/22 07:22:02;;;;;;;17.52;4.20;;;;;;;;;;5020223;28;20047;-79
2024/02/22 07:24:29;;;;;;;16.63;5.13;;;;;;;;;;5015309;28;20029;-78
2024/02/22 07:26:55;;;;;;;15.77;5.10;;;;;;;;;;5011984;28;20048;-79
2024/02/22 07:29:24;;;;;;;14.25;5.03;;;;;;;;;;5028466;28;20122;-78
2024/02/22 07:31:52;;;;;;;16.35;5.20;;;;;;;;;;5026896;28;20026;-79
2024/02/22 07:34:19;;;;;;;18.20;5.93;;;;;;;;;;5034779;28;20085;-78
2024/02/22 07:36:45;;;;;;;20.08;5.75;;;;;;;;;;5032533;28;20111;-79
2024/02/22 07:39:11;;;;;;;18.98;5.95;;;;;;;;;;5029568;28;20120;-79
2024/02/22 07:41:42;;;;;;;18.80;5.82;;;;;;;;;;5020572;28;20033;-79
2024/02/22 07:44:10;;;;;;;23.40;9.35;;;;;;;;;;5017753;28;20381;-80
2024/02/22 07:46:38;;;;;;;19.08;5.70;;;;;;;;;;5011830;28;20053;-79
2024/02/22 07:49:05;;;;;;;16.92;4.85;;;;;;;;;;5011439;28;20036;-79
2024/02/22 07:51:35;;;;;;;21.58;5.57;;;;;;;;;;5011970;28;20081;-79
2024/02/22 07:54:01;;;;;;;15.55;5.38;;;;;;;;;;5013254;28;20109;-79
2024/02/22 07:56:28;;;;;;;17.80;6.22;;;;;;;;;;5012666;28;20021;-81
2024/02/22 07:58:58;;;;;;;17.80;5.78;;;;;;;;;;5009355;28;20053;-79
2024/02/22 08:01:26;;;;;;;19.85;6.53;;;;;;;;;;5018156;28;20037;-78
2024/02/22 08:03:53;;;;;;;20.50;6.57;;;;;;;;;;5012121;28;20037;-81
2024/02/22 08:06:19;;;;;;;17.95;7.10;;;;;;;;;;5011954;28;20140;-80
2024/02/22 08:08:46;;;;;;;;;;;;;;;;;;5007880;28;20029;-80
2024/02/22 08:11:12;;;;;;;16.75;6.10;;;;;;;;;;5005998;28;19913;-80
2024/02/22 08:13:39;;;;;;;;;;;;;;;;;;5016948;28;20041;-80
2024/02/22 08:16:07;;;;;;;19.75;6.53;;;;;;;;;;5017174;28;19917;-80
2024/02/22 08:18:34;;;;;;;19.45;5.88;;;;;;;;;;4996156;28;20517;-81
2024/02/22 08:21:01;;;;;;;20.27;5.60;;;;;;;;;;5009904;28;20030;-81
2024/02/22 08:23:27;;;;;;;17.38;5.53;;;;;;;;;;5017413;28;20048;-80
2024/02/22 08:25:56;;;;;;;17.75;6.00;;;;;;;;;;5015111;28;20032;-80
2024/02/22 08:28:23;;;;;;;16.50;6.00;;;;;;;;;;5020633;28;20132;-81
2024/02/22 08:30:51;;;;;;;19.92;8.60;;;;;;;;;;5014041;28;20505;-81
2024/02/22 08:33:18;;;;;;;23.73;9.95;;;;;;;;;;5016076;28;20087;-80
2024/02/22 08:35:45;;;;;;;25.38;8.95;;;;;;;;;;5007201;28;20022;-81
2024/02/22 08:38:12;;;;;;;21.10;9.40;;;;;;;;;;5012509;28;20037;-80
2024/02/22 08:40:42;;;;;;;22.63;9.48;;;;;;;;;;4995217;28;20044;-80
2024/02/22 08:43:08;;;;;;;18.92;7.63;;;;;;;;;;5003539;28;20025;-80
2024/02/22 08:45:39;;;;;;;16.15;5.40;;;;;;;;;;5016106;28;20051;-81
2024/02/22 08:48:07;;;;;;;18.27;5.57;;;;;;;;;;5016564;28;20041;-80
2024/02/22 08:50:35;;;;;;;20.90;7.00;;;;;;;;;;5015295;28;20458;-83
2024/02/22 08:53:01;;;;;;;19.58;6.30;;;;;;;;;;5019845;28;20030;-80
2024/02/22 08:55:27;;;;;;;;;;;;;;;;;;5018863;28;20033;-81
2024/02/22 08:57:53;;;;;;;19.45;6.32;;;;;;;;;;5016686;28;20000;-81
2024/02/22 09:00:19;;;;;;;;;;;;;;;;;;5009352;28;20038;-79
2024/02/22 09:02:46;;;;;;;;;;;;;;;;;;5015183;28;19944;-79
2024/02/22 09:05:12;;;;;;;18.85;5.57;;;;;;;;;;5013794;28;19919;-79
2024/02/22 09:07:42;;;;;;;19.42;6.57;;;;;;;;;;5005655;28;20030;-80
2024/02/22 09:10:08;;;;;;;17.88;6.75;;;;;;;;;;5017919;28;20099;-82
2024/02/22 09:12:35;;;;;;;20.80;6.75;;;;;;;;;;5009929;28;20061;-79
2024/02/22 09:15:04;;;;;;;17.77;6.63;;;;;;;;;;5012270;28;20057;-78
2024/02/22 09:17:31;;;;;;;18.58;6.18;;;;;;;;;;5013746;28;20034;-78
2024/02/22 09:19:58;;;;;;;16.17;6.03;;;;;;;;;;5006094;28;20072;-77
2024/02/22 09:22:26;;;;;;;21.55;5.72;;;;;;;;;;4990530;28;20041;-80
2024/02/22 09:24:54;;;;;;;15.27;5.35;;;;;;;;;;5002569;28;20103;-81
2024/02/22 09:27:22;;;;;;;16.33;5.80;;;;;;;;;;5001626;28;21136;-82
2024/02/22 09:29:49;;;;;;;14.45;4.90;;;;;;;;;;5006405;28;20026;-81
2024/02/22 09:32:16;;;;;;;15.38;4.88;;;;;;;;;;5000035;28;20589;-80
2024/02/22 09:34:42;;;;;;;;;;;;;;;;;;5001526;28;20049;-79
2024/02/22 09:37:09;;;;;;;15.57;4.93;;;;;;;;;;5002938;28;20834;-82
2024/02/22 09:39:38;;;;;;;13.57;4.38;;;;;;;;;;5005405;28;20057;-81
2024/02/22 09:42:05;;;;;;;12.80;4.68;;;;;;;;;;4999577;28;20822;-81
2024/02/22 09:44:33;;;;;;;14.32;4.45;;;;;;;;;;5002775;28;20030;-81
2024/02/22 09:47:01;;;;;;;13.13;4.65;;;;;;;;;;5004829;28;20056;-82
2024/02/22 09:49:27;;;;;;;15.88;5.10;;;;;;;;;;5008164;28;20029;-82
2024/02/22 09:51:53;;;;;;;;;;;;;;;;;;4999592;28;20079;-79
2024/02/22 09:54:20;;;;;;;14.60;4.97;;;;;;;;;;5010078;28;19917;-81
2024/02/22 09:56:48;;;;;;;14.65;5.28;;;;;;;;;;5010048;28;20059;-80
2024/02/22 09:59:16;;;;;;;17.60;6.07;;;;;;;;;;5015062;28;20563;-81
2024/02/22 10:01:42;;;;;;;14.82;5.75;;;;;;;;;;5018378;28;20554;-80
2024/02/22 10:04:08;;;;;;;;;;;;;;;;;;5020834;28;20080;-81
2024/02/22 10:06:34;;;;;;;16.60;5.63;;;;;;;;;;5010517;28;19917;-82
2024/02/22 10:09:04;;;;;;;;;;;;;;;;;;5013607;28;20405;-82
2024/02/22 10:11:31;;;;;;;16.48;5.57;;;;;;;;;;5026514;28;19976;-79
2024/02/22 10:14:01;;;;;;;15.73;5.30;;;;;;;;;;5014902;28;20049;-80
2024/02/22 10:16:30;;;;;;;15.32;5.22;;;;;;;;;;5023732;28;20052;-82
2024/02/22 10:19:01;;;;;;;20.13;5.85;;;;;;;;;;5016888;28;20037;-80
2024/02/22 10:21:30;;;;;;;17.05;5.30;;;;;;;;;;5011761;28;20033;-80
2024/02/22 10:23:59;;;;;;;21.23;5.97;;;;;;;;;;5012351;28;20041;-81
2024/02/22 10:26:27;;;;;;;14.45;5.55;;;;;;;;;;5010911;28;20049;-81
2024/02/22 10:29:00;;;;;;;19.27;5.53;;;;;;;;;;5008574;28;20021;-83
2024/02/22 10:31:27;;;;;;;14.48;5.00;;;;;;;;;;5016619;28;20596;-82
2024/02/22 10:33:57;;;;;;;15.57;5.22;;;;;;;;;;5011114;28;20037;-80
2024/02/22 10:36:24;;;;;;;17.65;5.70;;;;;;;;;;5004992;28;20029;-80
2024/02/22 10:38:51;;;;;;;18.65;5.78;;;;;;;;;;5004675;28;20061;-80
2024/02/22 10:41:17;;;;;;;15.63;4.88;;;;;;;;;;5008520;28;20017;-81
2024/02/22 10:43:45;;;;;;;18.83;5.15;;;;;;;;;;4994757;28;20588;-81
2024/02/22 10:46:12;;;;;;;15.07;5.18;;;;;;;;;;5009991;28;20058;-81
2024/02/22 10:48:45;;;;;;;16.60;5.28;;;;;;;;;;5009657;28;20022;-80
2024/02/22 10:51:13;;;;;;;15.88;4.88;;;;;;;;;;5031120;28;20025;-81
2024/02/22 10:53:40;;;;;;;18.77;4.85;;;;;;;;;;5030950;28;20018;-80
2024/02/22 10:56:11;;;;;;;15.82;4.85;;;;;;;;;;5024443;28;20037;-80
2024/02/22 10:58:40;;;;;;;14.52;4.63;;;;;;;;;;5011856;28;20046;-80
2024/02/22 11:01:11;;;;;;;15.60;4.85;;;;;;;;;;5016570;28;20042;-81
2024/02/22 11:03:40;;;;;;;19.65;5.40;;;;;;;;;;5016671;28;20720;-81
2024/02/22 11:06:07;;;;;;;17.13;4.88;;;;;;;;;;5017771;28;20517;-81
2024/02/22 11:08:36;;;;;;;16.52;5.10;;;;;;;;;;5023525;28;20029;-81
2024/02/22 11:11:10;;;;;;;16.85;5.28;;;;;;;;;;5012678;28;20080;-81
2024/02/22 11:13:37;;;;;;;15.25;4.85;;;;;;;;;;5019984;28;20025;-82
2024/02/22 11:16:19;;;;;;;16.95;5.50;;;;;;;;;;5011886;28;20092;-82
2024/02/22 11:18:49;;;;;;;16.58;4.75;;;;;;;;;;5016528;28;20037;-81
2024/02/22 11:21:17;;;;;;;14.05;5.70;;;;;;;;;;5021765;28;20045;-82
2024/02/22 11:23:46;;;;;;;17.75;6.38;;;;;;;;;;5023758;28;20131;-82
2024/02/22 11:26:12;;;;;;;16.17;5.60;;;;;;;;;;5023089;28;20101;-81
2024/02/22 11:28:38;;;;;;;17.05;4.85;;;;;;;;;;5023706;28;20092;-81
2024/02/22 11:31:15;;;;;;;18.05;5.53;;;;;;;;;;5025668;28;20052;-81
2024/02/22 11:33:42;;;;;;;13.60;4.55;;;;;;;;;;5018474;28;20099;-81
2024/02/22 11:36:09;;;;;;;15.07;4.90;;;;;;;;;;5014671;28;20075;-80
2024/02/22 11:38:35;;;;;;;15.77;5.05;;;;;;;;;;5017282;28;20125;-81
2024/02/22 11:41:05;;;;;;;14.00;4.85;;;;;;;;;;5014829;28;20053;-82
2024/02/22 11:43:32;;;;;;;14.02;4.88;;;;;;;;;;5014870;28;20038;-82
2024/02/22 11:46:00;;;;;;;15.48;4.93;;;;;;;;;;5019881;28;20044;-81
2024/02/22 11:48:27;;;;;;;15.70;4.80;;;;;;;;;;5023159;28;20160;-80
2024/02/22 11:50:54;;;;;;;18.80;5.53;;;;;;;;;;5018329;28;20066;-82
2024/02/22 11:53:23;;;;;;;13.27;4.72;;;;;;;;;;5021243;28;20125;-81
2024/02/22 11:55:53;;;;;;;16.25;4.15;;;;;;;;;;5034653;28;20017;-81
2024/02/22 11:58:21;;;;;;;18.63;4.90;;;;;;;;;;5031329;28;20029;-83
2024/02/22 12:00:49;;;;;;;17.67;4.68;;;;;;;;;;5017716;28;20022;-82
2024/02/22 12:03:17;;;;;;;14.15;4.65;;;;;;;;;;5035696;28;20038;-81
2024/02/22 12:05:43;;;;;;;12.10;4.78;;;;;;;;;;5021552;28;20028;-80
2024/02/22 12:08:11;;;;;;;14.57;4.95;;;;;;;;;;5011239;28;20067;-80
2024/02/22 12:10:44;;;;;;;14.20;4.30;;;;;;;;;;5018256;28;20047;-82
2024/02/22 12:13:10;;;;;;;20.67;4.88;;;;;;;;;;5016251;28;20056;-81
2024/02/22 12:15:37;;;;;;;14.40;4.57;;;;;;;;;;5037805;28;20036;-81
2024/02/22 12:18:05;;;;;;;18.25;4.55;;;;;;;;;;5028924;28;20055;-81
2024/02/22 12:20:32;;;;;;;16.45;4.93;;;;;;;;;;5027179;28;20052;-81
2024/02/22 12:23:00;;;;;;;16.23;4.57;;;;;;;;;;5027958;28;20048;-81
2024/02/22 12:25:26;;;;;;;12.35;4.47;;;;;;;;;;5017181;28;20037;-81
2024/02/22 12:27:55;;;;;;;18.77;4.28;;;;;;;;;;5031073;28;20044;-81
2024/02/22 12:30:26;;;;;;;14.45;4.25;;;;;;;;;;5031836;28;20075;-82
2024/02/22 12:32:56;;;;;;;13.88;3.72;;;;;;;;;;5031952;28;20040;-82
2024/02/22 12:35:24;;;;;;;14.95;4.50;;;;;;;;;;5017180;28;20052;-82
2024/02/22 12:37:50;;;;;;;15.82;4.75;;;;;;;;;;5011706;28;20378;-81
2024/02/22 12:40:17;;;;;;;15.18;4.32;;;;;;;;;;5026913;28;20035;-81
2024/02/22 12:42:50;;;;;;;17.98;4.78;;;;;;;;;;5009208;28;20398;-82
2024/02/22 12:45:16;;;;;;;14.18;4.13;;;;;;;;;;5028283;28;20049;-81
2024/02/22 12:47:42;;;;;;;15.85;4.82;;;;;;;;;;5028079;28;20618;-80
2024/02/22 12:50:09;;;;;;;13.68;4.50;;;;;;;;;;5009594;28;20029;-81
2024/02/22 12:52:35;;;;;;;12.27;4.53;;;;;;;;;;5023329;28;20024;-79
2024/02/22 12:55:01;;;;;;;15.40;4.93;;;;;;;;;;5029392;28;20033;-79
2024/02/22 12:57:29;;;;;;;13.35;4.40;;;;;;;;;;5011974;28;20041;-80
2024/02/22 12:59:55;;;;;;;12.27;4.75;;;;;;;;;;5012379;28;20103;-80
2024/02/22 13:02:24;;;;;;;15.80;5.22;;;;;;;;;;5027319;28;20140;-80
2024/02/22 13:04:53;;;;;;;15.48;4.65;;;;;;;;;;5015944;28;20104;-81
2024/02/22 13:07:19;;;;;;;14.88;5.07;;;;;;;;;;5012076;28;20043;-82
2024/02/22 13:09:45;;;;;;;16.05;4.93;;;;;;;;;;5026761;28;20025;-81
2024/02/22 13:12:16;;;;;;;16.13;4.60;;;;;;;;;;5007702;28;20106;-81
2024/02/22 13:14:45;;;;;;;19.33;4.90;;;;;;;;;;5014003;28;20036;-82
2024/02/22 13:17:17;;;;;;;12.93;4.80;;;;;;;;;;5022489;28;20056;-81
2024/02/22 13:19:43;;;;;;;18.92;5.55;;;;;;;;;;5008016;28;20779;-81
2024/02/22 13:22:09;;;;;;;15.48;5.32;;;;;;;;;;5029344;28;20037;-81
2024/02/22 13:24:37;;;;;;;15.23;5.10;;;;;;;;;;5006716;28;20048;-81
2024/02/22 13:27:06;;;;;;;19.63;5.53;;;;;;;;;;5000656;28;20041;-81
2024/02/22 13:29:32;;;;;;;19.63;5.45;;;;;;;;;;5011642;28;20797;-81
2024/02/22 13:32:02;;;;;;;13.60;4.25;;;;;;;;;;5022456;28;20692;-81
2024/02/22 13:34:29;;;;;;;15.55;5.05;;;;;;;;;;5020805;28;20068;-80
2024/02/22 13:36:56;;;;;;;14.55;4.90;;;;;;;;;;5023864;28;20044;-81
2024/02/22 13:39:22;;;;;;;19.52;5.07;;;;;;;;;;5015102;28;20037;-80
2024/02/22 13:41:48;;;;;;;14.50;4.25;;;;;;;;;;5012160;28;20112;-80
2024/02/22 13:44:16;;;;;;;15.02;3.25;;;;;;;;;;5023819;28;20021;-80
2024/02/22 13:46:45;;;;;;;13.75;4.13;;;;;;;;;;5033544;28;20107;-81
2024/02/22 13:49:17;;;;;;;15.52;4.05;;;;;;;;;;5025100;28;20760;-79
2024/02/22 13:51:47;;;;;;;15.55;4.25;;;;;;;;;;4996843;28;20781;-81
2024/02/22 13:54:15;;;;;;;16.30;3.88;;;;;;;;;;5015765;28;20686;-79
2024/02/22 13:56:53;;;;;;;16.00;4.32;;;;;;;;;;5029054;28;20468;-81
2024/02/22 13:59:20;;;;;;;15.30;4.55;;;;;;;;;;5033763;28;20504;-81
2024/02/22 14:01:48;;;;;;;15.35;4.18;;;;;;;;;;5006247;28;20040;-80
2024/02/22 14:04:15;;;;;;;18.25;4.90;;;;;;;;;;5027343;28;20029;-81
2024/02/22 14:06:42;;;;;;;16.80;4.57;;;;;;;;;;5026359;28;20041;-81
2024/02/22 14:09:10;;;;;;;14.45;3.80;;;;;;;;;;5032703;28;20100;-80
2024/02/22 14:11:38;;;;;;;19.02;4.50;;;;;;;;;;4997302;28;20040;-81
2024/02/22 14:14:06;;;;;;;14.63;4.38;;;;;;;;;;5017245;28;20026;-81
2024/02/22 14:16:35;;;;;;;17.48;4.35;;;;;;;;;;5019389;28;20033;-81
2024/02/22 14:19:02;;;;;;;16.02;3.92;;;;;;;;;;5011062;28;20037;-81
2024/02/22 14:21:28;;;;;;;14.70;4.25;;;;;;;;;;5014793;28;20588;-81
2024/02/22 14:23:55;;;;;;;14.98;4.70;;;;;;;;;;5012816;28;20049;-81
2024/02/22 14:26:21;;;;;;;19.02;4.35;;;;;;;;;;5018085;28;20044;-80
2024/02/22 14:28:49;;;;;;;14.20;3.95;;;;;;;;;;5015961;28;20083;-81
2024/02/22 14:31:16;;;;;;;15.57;4.00;;;;;;;;;;5036213;28;20052;-81
2024/02/22 14:33:42;;;;;;;15.50;4.55;;;;;;;;;;5011202;28;20032;-80
2024/02/22 14:36:10;;;;;;;15.32;4.32;;;;;;;;;;5007618;28;20028;-82
2024/02/22 14:38:37;;;;;;;14.35;4.20;;;;;;;;;;5016995;28;20110;-79